sensor_id;sensor_type;location;lat;lon;timestamp;temperature;humidity
39347;DHT22;26262;49.836;6.632;2022-09-03T00:02:03;15.60;93.80
39347;DHT22;26262;49.836;6.632;2022-09-03T00:04:41;15.60;94.10
39347;DHT22;26262;49.836;6.632;2022-09-03T00:07:18;15.40;94.20
39347;DHT22;26262;49.836;6.632;2022-09-03T00:09:56;15.40;94.60
39347;DHT22;26262;49.836;6.632;2022-09-03T00:12:28;15.60;94.70
39347;DHT22;26262;49.836;6.632;2022-09-03T00:15:03;15.60;94.80
39347;DHT22;26262;49.836;6.632;2022-09-03T00:17:34;15.70;94.20
39347;DHT22;26262;49.836;6.632;2022-09-03T00:20:06;15.70;94.30
39347;DHT22;26262;49.836;6.632;2022-09-03T00:22:45;15.70;94.60
39347;DHT22;26262;49.836;6.632;2022-09-03T00:25:17;15.80;94.70
39347;DHT22;26262;49.836;6.632;2022-09-03T00:27:47;15.70;94.90
39347;DHT22;26262;49.836;6.632;2022-09-03T00:30:16;15.80;94.80
39347;DHT22;26262;49.836;6.632;2022-09-03T00:32:49;15.70;94.70
39347;DHT22;26262;49.836;6.632;2022-09-03T00:35:22;15.80;94.90
39347;DHT22;26262;49.836;6.632;2022-09-03T00:37:51;15.80;94.80
39347;DHT22;26262;49.836;6.632;2022-09-03T00:40:24;15.90;94.70
39347;DHT22;26262;49.836;6.632;2022-09-03T00:51:42;15.90;95.20
39347;DHT22;26262;49.836;6.632;2022-09-03T00:54:15;15.90;95.10
39347;DHT22;26262;49.836;6.632;2022-09-03T01:05:09;16.10;95.20
39347;DHT22;26262;49.836;6.632;2022-09-03T01:18:32;16.00;96.00
39347;DHT22;26262;49.836;6.632;2022-09-03T01:24:22;16.10;95.40
39347;DHT22;26262;49.836;6.632;2022-09-03T01:27:17;16.00;96.10
39347;DHT22;26262;49.836;6.632;2022-09-03T01:30:05;16.10;96.00
39347;DHT22;26262;49.836;6.632;2022-09-03T01:38:20;15.90;96.30
39347;DHT22;26262;49.836;6.632;2022-09-03T01:41:13;16.10;96.10
39347;DHT22;26262;49.836;6.632;2022-09-03T01:44:32;16.10;95.60
39347;DHT22;26262;49.836;6.632;2022-09-03T01:49:50;15.90;95.70
39347;DHT22;26262;49.836;6.632;2022-09-03T01:55:29;16.10;95.80
39347;DHT22;26262;49.836;6.632;2022-09-03T01:57:56;16.10;96.70
39347;DHT22;26262;49.836;6.632;2022-09-03T02:00:24;16.10;96.30
39347;DHT22;26262;49.836;6.632;2022-09-03T02:02:51;16.10;96.50
39347;DHT22;26262;49.836;6.632;2022-09-03T02:05:22;16.20;96.30
39347;DHT22;26262;49.836;6.632;2022-09-03T02:08:03;16.00;96.40
39347;DHT22;26262;49.836;6.632;2022-09-03T02:10:34;16.10;96.60
39347;DHT22;26262;49.836;6.632;2022-09-03T02:13:28;16.10;96.80
39347;DHT22;26262;49.836;6.632;2022-09-03T02:15:58;16.10;96.60
39347;DHT22;26262;49.836;6.632;2022-09-03T02:18:28;16.10;97.00
39347;DHT22;26262;49.836;6.632;2022-09-03T02:20:56;16.10;96.90
39347;DHT22;26262;49.836;6.632;2022-09-03T02:23:23;15.90;96.70
39347;DHT22;26262;49.836;6.632;2022-09-03T02:25:54;16.00;97.20
39347;DHT22;26262;49.836;6.632;2022-09-03T02:28:20;16.00;97.10
39347;DHT22;26262;49.836;6.632;2022-09-03T02:30:46;15.90;97.10
39347;DHT22;26262;49.836;6.632;2022-09-03T02:33:13;15.90;97.20
39347;DHT22;26262;49.836;6.632;2022-09-03T02:35:40;16.00;97.30
39347;DHT22;26262;49.836;6.632;2022-09-03T02:38:14;16.00;97.70
39347;DHT22;26262;49.836;6.632;2022-09-03T02:40:41;16.00;97.40
39347;DHT22;26262;49.836;6.632;2022-09-03T02:43:11;16.10;97.30
39347;DHT22;26262;49.836;6.632;2022-09-03T02:45:42;16.10;97.70
39347;DHT22;26262;49.836;6.632;2022-09-03T02:48:10;16.10;97.80
39347;DHT22;26262;49.836;6.632;2022-09-03T02:50:42;16.10;97.50
39347;DHT22;26262;49.836;6.632;2022-09-03T02:53:08;15.70;97.90
39347;DHT22;26262;49.836;6.632;2022-09-03T02:55:33;15.60;98.30
39347;DHT22;26262;49.836;6.632;2022-09-03T02:57:59;15.70;98.30
39347;DHT22;26262;49.836;6.632;2022-09-03T03:00:25;15.80;99.30
39347;DHT22;26262;49.836;6.632;2022-09-03T03:02:56;15.60;99.90
39347;DHT22;26262;49.836;6.632;2022-09-03T03:05:26;15.30;99.90
39347;DHT22;26262;49.836;6.632;2022-09-03T03:07:54;15.50;99.90
39347;DHT22;26262;49.836;6.632;2022-09-03T03:10:20;15.60;99.90
39347;DHT22;26262;49.836;6.632;2022-09-03T03:12:46;15.80;99.90
39347;DHT22;26262;49.836;6.632;2022-09-03T03:15:11;15.60;99.90
39347;DHT22;26262;49.836;6.632;2022-09-03T03:17:37;15.40;99.90
39347;DHT22;26262;49.836;6.632;2022-09-03T03:20:03;15.00;99.90
39347;DHT22;26262;49.836;6.632;2022-09-03T03:22:28;14.90;99.90
39347;DHT22;26262;49.836;6.632;2022-09-03T03:24:54;15.00;99.90
39347;DHT22;26262;49.836;6.632;2022-09-03T03:27:21;15.10;99.90
39347;DHT22;26262;49.836;6.632;2022-09-03T03:29:46;14.90;99.90
39347;DHT22;26262;49.836;6.632;2022-09-03T03:32:12;14.90;99.90
39347;DHT22;26262;49.836;6.632;2022-09-03T03:34:37;14.90;99.90
39347;DHT22;26262;49.836;6.632;2022-09-03T03:37:04;15.00;99.90
39347;DHT22;26262;49.836;6.632;2022-09-03T03:39:30;15.10;99.90
39347;DHT22;26262;49.836;6.632;2022-09-03T03:41:55;15.20;99.90
39347;DHT22;26262;49.836;6.632;2022-09-03T03:44:20;15.30;99.90
39347;DHT22;26262;49.836;6.632;2022-09-03T03:46:46;15.20;99.90
39347;DHT22;26262;49.836;6.632;2022-09-03T03:49:12;15.10;99.90
39347;DHT22;26262;49.836;6.632;2022-09-03T03:51:37;14.80;99.90
39347;DHT22;26262;49.836;6.632;2022-09-03T03:54:03;14.90;99.90
39347;DHT22;26262;49.836;6.632;2022-09-03T03:56:29;14.90;99.90
39347;DHT22;26262;49.836;6.632;2022-09-03T03:58:55;15.00;99.90
39347;DHT22;26262;49.836;6.632;2022-09-03T04:01:25;14.90;99.90
39347;DHT22;26262;49.836;6.632;2022-09-03T04:03:51;15.10;99.90
39347;DHT22;26262;49.836;6.632;2022-09-03T04:06:18;15.00;99.90
39347;DHT22;26262;49.836;6.632;2022-09-03T04:08:46;14.90;99.90
39347;DHT22;26262;49.836;6.632;2022-09-03T04:11:14;15.10;99.90
39347;DHT22;26262;49.836;6.632;2022-09-03T04:13:42;15.20;99.90
39347;DHT22;26262;49.836;6.632;2022-09-03T04:16:13;15.30;99.90
39347;DHT22;26262;49.836;6.632;2022-09-03T04:18:39;15.40;99.90
39347;DHT22;26262;49.836;6.632;2022-09-03T04:21:10;15.20;99.90
39347;DHT22;26262;49.836;6.632;2022-09-03T04:23:38;15.30;99.90
39347;DHT22;26262;49.836;6.632;2022-09-03T04:26:05;15.40;99.90
39347;DHT22;26262;49.836;6.632;2022-09-03T04:28:31;15.20;99.90
39347;DHT22;26262;49.836;6.632;2022-09-03T04:31:04;15.10;99.90
39347;DHT22;26262;49.836;6.632;2022-09-03T04:33:30;15.10;99.90
39347;DHT22;26262;49.836;6.632;2022-09-03T04:36:23;15.30;99.90
39347;DHT22;26262;49.836;6.632;2022-09-03T04:38:51;15.40;99.90
39347;DHT22;26262;49.836;6.632;2022-09-03T04:41:23;15.50;99.90
39347;DHT22;26262;49.836;6.632;2022-09-03T04:43:50;15.60;99.90
39347;DHT22;26262;49.836;6.632;2022-09-03T04:46:18;15.60;99.90
39347;DHT22;26262;49.836;6.632;2022-09-03T04:48:48;15.60;99.90
39347;DHT22;26262;49.836;6.632;2022-09-03T04:51:17;15.50;99.90
39347;DHT22;26262;49.836;6.632;2022-09-03T04:53:45;15.30;99.90
39347;DHT22;26262;49.836;6.632;2022-09-03T04:58:38;15.50;99.90
39347;DHT22;26262;49.836;6.632;2022-09-03T05:01:09;15.40;99.90
39347;DHT22;26262;49.836;6.632;2022-09-03T05:03:34;15.40;99.90
39347;DHT22;26262;49.836;6.632;2022-09-03T05:06:02;15.50;99.90
39347;DHT22;26262;49.836;6.632;2022-09-03T05:08:27;15.50;99.90
39347;DHT22;26262;49.836;6.632;2022-09-03T05:11:03;15.60;99.90
39347;DHT22;26262;49.836;6.632;2022-09-03T05:13:29;15.50;99.90
39347;DHT22;26262;49.836;6.632;2022-09-03T05:16:13;15.50;99.90
39347;DHT22;26262;49.836;6.632;2022-09-03T05:18:39;15.50;99.90
39347;DHT22;26262;49.836;6.632;2022-09-03T05:21:11;15.60;99.90
39347;DHT22;26262;49.836;6.632;2022-09-03T05:23:39;15.60;99.90
39347;DHT22;26262;49.836;6.632;2022-09-03T05:26:07;15.60;99.90
39347;DHT22;26262;49.836;6.632;2022-09-03T05:28:37;15.60;99.90
39347;DHT22;26262;49.836;6.632;2022-09-03T05:31:06;15.60;99.90
39347;DHT22;26262;49.836;6.632;2022-09-03T05:33:34;15.30;99.90
39347;DHT22;26262;49.836;6.632;2022-09-03T05:36:04;15.20;99.90
39347;DHT22;26262;49.836;6.632;2022-09-03T05:38:30;15.30;99.90
39347;DHT22;26262;49.836;6.632;2022-09-03T05:41:04;15.40;99.90
39347;DHT22;26262;49.836;6.632;2022-09-03T05:43:31;15.00;99.90
39347;DHT22;26262;49.836;6.632;2022-09-03T05:46:04;15.10;99.90
39347;DHT22;26262;49.836;6.632;2022-09-03T05:48:31;15.20;99.90
39347;DHT22;26262;49.836;6.632;2022-09-03T05:51:02;15.20;99.90
39347;DHT22;26262;49.836;6.632;2022-09-03T05:53:29;15.10;99.90
39347;DHT22;26262;49.836;6.632;2022-09-03T05:55:59;14.90;99.90
39347;DHT22;26262;49.836;6.632;2022-09-03T05:58:29;14.80;99.90
39347;DHT22;26262;49.836;6.632;2022-09-03T06:00:55;14.80;99.90
39347;DHT22;26262;49.836;6.632;2022-09-03T06:03:21;14.80;99.90
39347;DHT22;26262;49.836;6.632;2022-09-03T06:05:53;14.80;99.90
39347;DHT22;26262;49.836;6.632;2022-09-03T06:08:20;15.00;99.90
39347;DHT22;26262;49.836;6.632;2022-09-03T06:10:46;15.30;99.90
39347;DHT22;26262;49.836;6.632;2022-09-03T06:13:12;15.50;99.90
39347;DHT22;26262;49.836;6.632;2022-09-03T06:15:38;15.50;99.90
39347;DHT22;26262;49.836;6.632;2022-09-03T06:18:04;15.60;99.90
39347;DHT22;26262;49.836;6.632;2022-09-03T06:20:30;15.80;99.90
39347;DHT22;26262;49.836;6.632;2022-09-03T06:22:57;15.90;99.90
39347;DHT22;26262;49.836;6.632;2022-09-03T06:25:23;16.00;99.90
39347;DHT22;26262;49.836;6.632;2022-09-03T06:27:49;16.10;99.90
39347;DHT22;26262;49.836;6.632;2022-09-03T06:30:14;16.20;99.90
39347;DHT22;26262;49.836;6.632;2022-09-03T06:32:47;16.30;99.90
39347;DHT22;26262;49.836;6.632;2022-09-03T06:35:14;16.10;99.90
39347;DHT22;26262;49.836;6.632;2022-09-03T06:37:41;16.10;99.90
39347;DHT22;26262;49.836;6.632;2022-09-03T06:40:08;16.20;99.90
39347;DHT22;26262;49.836;6.632;2022-09-03T06:42:40;16.40;99.90
39347;DHT22;26262;49.836;6.632;2022-09-03T06:45:08;16.40;99.90
39347;DHT22;26262;49.836;6.632;2022-09-03T06:47:34;16.20;99.90
39347;DHT22;26262;49.836;6.632;2022-09-03T06:50:00;16.10;99.90
39347;DHT22;26262;49.836;6.632;2022-09-03T06:52:26;16.00;99.90
39347;DHT22;26262;49.836;6.632;2022-09-03T06:54:52;16.20;99.90
39347;DHT22;26262;49.836;6.632;2022-09-03T06:57:17;16.40;99.90
39347;DHT22;26262;49.836;6.632;2022-09-03T06:59:43;16.60;99.90
39347;DHT22;26262;49.836;6.632;2022-09-03T07:02:09;16.70;99.90
39347;DHT22;26262;49.836;6.632;2022-09-03T07:04:35;16.70;99.90
39347;DHT22;26262;49.836;6.632;2022-09-03T07:07:00;16.80;99.90
39347;DHT22;26262;49.836;6.632;2022-09-03T07:09:27;16.80;99.90
39347;DHT22;26262;49.836;6.632;2022-09-03T07:11:53;17.00;99.90
39347;DHT22;26262;49.836;6.632;2022-09-03T07:14:19;17.00;99.90
39347;DHT22;26262;49.836;6.632;2022-09-03T07:16:46;17.00;99.90
39347;DHT22;26262;49.836;6.632;2022-09-03T07:19:13;17.10;99.90
39347;DHT22;26262;49.836;6.632;2022-09-03T07:21:39;17.20;99.90
39347;DHT22;26262;49.836;6.632;2022-09-03T07:24:08;17.30;99.90
39347;DHT22;26262;49.836;6.632;2022-09-03T07:26:37;17.40;99.90
39347;DHT22;26262;49.836;6.632;2022-09-03T07:29:03;17.50;99.90
39347;DHT22;26262;49.836;6.632;2022-09-03T07:31:40;17.50;99.90
39347;DHT22;26262;49.836;6.632;2022-09-03T07:34:10;17.20;99.90
39347;DHT22;26262;49.836;6.632;2022-09-03T07:36:41;17.20;99.90
39347;DHT22;26262;49.836;6.632;2022-09-03T07:39:08;17.20;99.90
39347;DHT22;26262;49.836;6.632;2022-09-03T07:41:35;17.20;99.90
39347;DHT22;26262;49.836;6.632;2022-09-03T07:44:01;17.40;99.90
39347;DHT22;26262;49.836;6.632;2022-09-03T07:46:31;17.50;99.90
39347;DHT22;26262;49.836;6.632;2022-09-03T07:48:58;17.60;99.90
39347;DHT22;26262;49.836;6.632;2022-09-03T07:51:27;17.60;99.90
39347;DHT22;26262;49.836;6.632;2022-09-03T07:53:54;17.80;99.90
39347;DHT22;26262;49.836;6.632;2022-09-03T07:56:20;17.90;99.90
39347;DHT22;26262;49.836;6.632;2022-09-03T07:58:46;18.10;99.90
39347;DHT22;26262;49.836;6.632;2022-09-03T08:01:14;18.10;99.90
39347;DHT22;26262;49.836;6.632;2022-09-03T08:03:45;18.20;99.90
39347;DHT22;26262;49.836;6.632;2022-09-03T08:06:12;18.40;99.90
39347;DHT22;26262;49.836;6.632;2022-09-03T08:08:38;18.50;99.90
39347;DHT22;26262;49.836;6.632;2022-09-03T08:11:16;18.60;99.90
39347;DHT22;26262;49.836;6.632;2022-09-03T08:13:44;18.70;99.90
39347;DHT22;26262;49.836;6.632;2022-09-03T08:16:11;18.80;99.90
39347;DHT22;26262;49.836;6.632;2022-09-03T08:18:39;18.90;99.90
39347;DHT22;26262;49.836;6.632;2022-09-03T08:21:06;18.90;99.90
39347;DHT22;26262;49.836;6.632;2022-09-03T08:23:36;19.00;99.90
39347;DHT22;26262;49.836;6.632;2022-09-03T08:26:02;19.00;99.90
39347;DHT22;26262;49.836;6.632;2022-09-03T08:28:28;19.10;99.90
39347;DHT22;26262;49.836;6.632;2022-09-03T08:30:54;19.30;99.90
39347;DHT22;26262;49.836;6.632;2022-09-03T08:33:20;19.40;99.90
39347;DHT22;26262;49.836;6.632;2022-09-03T08:36:05;19.60;99.90
39347;DHT22;26262;49.836;6.632;2022-09-03T08:38:32;19.90;99.90
39347;DHT22;26262;49.836;6.632;2022-09-03T08:41:16;20.20;99.60
39347;DHT22;26262;49.836;6.632;2022-09-03T08:46:32;20.80;98.80
39347;DHT22;26262;49.836;6.632;2022-09-03T08:48:59;21.10;98.90
39347;DHT22;26262;49.836;6.632;2022-09-03T08:51:26;21.20;98.10
39347;DHT22;26262;49.836;6.632;2022-09-03T08:53:53;21.30;98.40
39347;DHT22;26262;49.836;6.632;2022-09-03T08:56:26;21.50;98.10
39347;DHT22;26262;49.836;6.632;2022-09-03T08:58:53;21.80;98.00
39347;DHT22;26262;49.836;6.632;2022-09-03T09:01:29;21.80;98.40
39347;DHT22;26262;49.836;6.632;2022-09-03T09:04:26;22.00;98.00
39347;DHT22;26262;49.836;6.632;2022-09-03T09:07:08;22.20;99.20
39347;DHT22;26262;49.836;6.632;2022-09-03T09:09:54;22.50;98.50
39347;DHT22;26262;49.836;6.632;2022-09-03T09:12:32;22.70;98.30
39347;DHT22;26262;49.836;6.632;2022-09-03T09:15:10;22.70;97.70
39347;DHT22;26262;49.836;6.632;2022-09-03T09:17:48;22.90;97.90
39347;DHT22;26262;49.836;6.632;2022-09-03T09:23:30;22.80;97.90
39347;DHT22;26262;49.836;6.632;2022-09-03T09:26:01;22.90;98.30
39347;DHT22;26262;49.836;6.632;2022-09-03T09:28:33;22.90;98.00
39347;DHT22;26262;49.836;6.632;2022-09-03T09:31:01;23.10;98.80
39347;DHT22;26262;49.836;6.632;2022-09-03T09:33:28;23.30;98.30
39347;DHT22;26262;49.836;6.632;2022-09-03T09:35:53;23.40;97.40
39347;DHT22;26262;49.836;6.632;2022-09-03T09:38:31;23.60;97.40
39347;DHT22;26262;49.836;6.632;2022-09-03T09:41:07;23.70;97.00
39347;DHT22;26262;49.836;6.632;2022-09-03T09:43:33;23.20;97.40
39347;DHT22;26262;49.836;6.632;2022-09-03T09:46:15;23.40;98.30
39347;DHT22;26262;49.836;6.632;2022-09-03T09:48:52;23.70;97.60
39347;DHT22;26262;49.836;6.632;2022-09-03T09:51:26;23.80;97.40
39347;DHT22;26262;49.836;6.632;2022-09-03T09:54:13;23.70;96.90
39347;DHT22;26262;49.836;6.632;2022-09-03T09:56:41;23.70;96.80
39347;DHT22;26262;49.836;6.632;2022-09-03T09:59:10;23.60;96.50
39347;DHT22;26262;49.836;6.632;2022-09-03T10:01:38;23.60;97.20
39347;DHT22;26262;49.836;6.632;2022-09-03T10:04:23;23.60;97.60
39347;DHT22;26262;49.836;6.632;2022-09-03T10:07:02;23.70;96.80
39347;DHT22;26262;49.836;6.632;2022-09-03T10:09:31;23.80;96.70
39347;DHT22;26262;49.836;6.632;2022-09-03T10:14:33;23.70;96.80
39347;DHT22;26262;49.836;6.632;2022-09-03T10:17:08;23.60;97.00
39347;DHT22;26262;49.836;6.632;2022-09-03T10:22:55;23.80;96.80
39347;DHT22;26262;49.836;6.632;2022-09-03T10:25:25;23.70;96.80
39347;DHT22;26262;49.836;6.632;2022-09-03T10:27:51;23.40;96.60
39347;DHT22;26262;49.836;6.632;2022-09-03T10:30:19;23.20;97.30
39347;DHT22;26262;49.836;6.632;2022-09-03T10:33:04;23.50;97.70
39347;DHT22;26262;49.836;6.632;2022-09-03T10:35:42;23.80;97.10
39347;DHT22;26262;49.836;6.632;2022-09-03T10:38:32;24.10;96.80
39347;DHT22;26262;49.836;6.632;2022-09-03T10:41:02;24.30;96.20
39347;DHT22;26262;49.836;6.632;2022-09-03T10:44:04;24.50;96.70
39347;DHT22;26262;49.836;6.632;2022-09-03T10:47:06;24.60;95.70
39347;DHT22;26262;49.836;6.632;2022-09-03T10:49:48;25.10;95.20
39347;DHT22;26262;49.836;6.632;2022-09-03T10:55:26;25.50;94.10
39347;DHT22;26262;49.836;6.632;2022-09-03T11:00:53;25.50;94.00
39347;DHT22;26262;49.836;6.632;2022-09-03T11:03:41;24.80;93.80
39347;DHT22;26262;49.836;6.632;2022-09-03T11:06:28;24.70;94.60
39347;DHT22;26262;49.836;6.632;2022-09-03T11:11:46;25.30;94.10
39347;DHT22;26262;49.836;6.632;2022-09-03T11:14:15;25.90;93.40
39347;DHT22;26262;49.836;6.632;2022-09-03T11:16:54;26.50;92.90
39347;DHT22;26262;49.836;6.632;2022-09-03T11:19:33;26.80;91.80
39347;DHT22;26262;49.836;6.632;2022-09-03T11:21:59;27.30;91.60
39347;DHT22;26262;49.836;6.632;2022-09-03T11:24:28;27.60;91.30
39347;DHT22;26262;49.836;6.632;2022-09-03T11:27:10;27.60;90.80
39347;DHT22;26262;49.836;6.632;2022-09-03T11:29:59;27.60;90.60
39347;DHT22;26262;49.836;6.632;2022-09-03T11:34:53;26.80;91.10
39347;DHT22;26262;49.836;6.632;2022-09-03T11:37:27;27.00;90.80
39347;DHT22;26262;49.836;6.632;2022-09-03T11:40:13;27.70;91.00
39347;DHT22;26262;49.836;6.632;2022-09-03T11:42:44;27.70;88.90
39347;DHT22;26262;49.836;6.632;2022-09-03T11:45:35;27.50;90.00
39347;DHT22;26262;49.836;6.632;2022-09-03T11:48:00;26.90;90.40
39347;DHT22;26262;49.836;6.632;2022-09-03T11:50:31;26.70;90.30
39347;DHT22;26262;49.836;6.632;2022-09-03T11:55:59;25.50;91.40
39347;DHT22;26262;49.836;6.632;2022-09-03T11:58:31;25.30;91.90
39347;DHT22;26262;49.836;6.632;2022-09-03T12:01:01;25.30;92.30
39347;DHT22;26262;49.836;6.632;2022-09-03T12:11:42;24.30;93.50
39347;DHT22;26262;49.836;6.632;2022-09-03T12:16:50;24.20;94.00
39347;DHT22;26262;49.836;6.632;2022-09-03T12:19:52;24.00;94.50
39347;DHT22;26262;49.836;6.632;2022-09-03T12:22:20;24.00;94.90
39347;DHT22;26262;49.836;6.632;2022-09-03T12:24:46;23.70;95.70
39347;DHT22;26262;49.836;6.632;2022-09-03T12:27:21;23.40;96.20
39347;DHT22;26262;49.836;6.632;2022-09-03T12:30:00;23.20;97.00
39347;DHT22;26262;49.836;6.632;2022-09-03T12:32:28;22.80;97.90
39347;DHT22;26262;49.836;6.632;2022-09-03T12:34:57;22.90;98.50
39347;DHT22;26262;49.836;6.632;2022-09-03T12:37:25;22.50;98.90
39347;DHT22;26262;49.836;6.632;2022-09-03T12:39:57;22.60;99.00
39347;DHT22;26262;49.836;6.632;2022-09-03T12:42:28;22.80;98.70
39347;DHT22;26262;49.836;6.632;2022-09-03T12:44:55;22.90;96.30
39347;DHT22;26262;49.836;6.632;2022-09-03T12:47:22;22.80;95.40
39347;DHT22;26262;49.836;6.632;2022-09-03T12:49:50;22.80;95.10
39347;DHT22;26262;49.836;6.632;2022-09-03T12:58:23;22.60;95.10
39347;DHT22;26262;49.836;6.632;2022-09-03T13:01:10;22.50;96.80
39347;DHT22;26262;49.836;6.632;2022-09-03T13:03:52;22.40;98.40
39347;DHT22;26262;49.836;6.632;2022-09-03T13:06:24;22.60;97.70
39347;DHT22;26262;49.836;6.632;2022-09-03T13:08:59;22.50;98.40
39347;DHT22;26262;49.836;6.632;2022-09-03T13:11:26;22.40;99.40
39347;DHT22;26262;49.836;6.632;2022-09-03T13:13:55;22.50;99.90
39347;DHT22;26262;49.836;6.632;2022-09-03T13:19:38;22.20;99.90
39347;DHT22;26262;49.836;6.632;2022-09-03T13:25:19;22.60;99.90
39347;DHT22;26262;49.836;6.632;2022-09-03T13:30:52;23.10;99.50
39347;DHT22;26262;49.836;6.632;2022-09-03T13:33:27;23.60;99.20
39347;DHT22;26262;49.836;6.632;2022-09-03T13:36:17;23.70;97.60
39347;DHT22;26262;49.836;6.632;2022-09-03T13:38:53;24.00;97.60
39347;DHT22;26262;49.836;6.632;2022-09-03T13:44:13;24.10;96.00
39347;DHT22;26262;49.836;6.632;2022-09-03T13:46:52;23.80;96.50
39347;DHT22;26262;49.836;6.632;2022-09-03T13:49:39;23.90;95.60
39347;DHT22;26262;49.836;6.632;2022-09-03T13:52:32;23.70;96.10
39347;DHT22;26262;49.836;6.632;2022-09-03T13:55:10;23.70;95.80
39347;DHT22;26262;49.836;6.632;2022-09-03T13:57:56;23.50;95.90
39347;DHT22;26262;49.836;6.632;2022-09-03T14:00:45;23.50;96.60
39347;DHT22;26262;49.836;6.632;2022-09-03T14:03:30;23.40;96.60
39347;DHT22;26262;49.836;6.632;2022-09-03T14:09:03;23.40;97.20
39347;DHT22;26262;49.836;6.632;2022-09-03T14:16:58;22.80;98.80
39347;DHT22;26262;49.836;6.632;2022-09-03T14:20:11;22.80;99.50
39347;DHT22;26262;49.836;6.632;2022-09-03T14:25:25;22.70;99.90
39347;DHT22;26262;49.836;6.632;2022-09-03T14:27:53;22.80;99.90
39347;DHT22;26262;49.836;6.632;2022-09-03T14:30:29;23.30;99.90
39347;DHT22;26262;49.836;6.632;2022-09-03T14:33:29;23.50;99.30
39347;DHT22;26262;49.836;6.632;2022-09-03T14:36:20;23.90;99.00
39347;DHT22;26262;49.836;6.632;2022-09-03T14:44:59;24.30;98.10
39347;DHT22;26262;49.836;6.632;2022-09-03T14:47:48;24.50;98.00
39347;DHT22;26262;49.836;6.632;2022-09-03T14:50:40;24.70;97.80
39347;DHT22;26262;49.836;6.632;2022-09-03T14:53:38;24.40;97.70
39347;DHT22;26262;49.836;6.632;2022-09-03T14:56:58;24.20;98.10
39347;DHT22;26262;49.836;6.632;2022-09-03T14:59:26;24.30;98.00
39347;DHT22;26262;49.836;6.632;2022-09-03T15:11:03;25.50;96.60
39347;DHT22;26262;49.836;6.632;2022-09-03T15:13:33;25.30;96.50
39347;DHT22;26262;49.836;6.632;2022-09-03T15:22:18;24.70;96.90
39347;DHT22;26262;49.836;6.632;2022-09-03T15:25:12;24.60;96.90
39347;DHT22;26262;49.836;6.632;2022-09-03T15:28:14;24.40;97.40
39347;DHT22;26262;49.836;6.632;2022-09-03T15:33:39;24.10;97.50
39347;DHT22;26262;49.836;6.632;2022-09-03T15:36:24;23.70;97.80
39347;DHT22;26262;49.836;6.632;2022-09-03T15:39:01;23.70;98.10
39347;DHT22;26262;49.836;6.632;2022-09-03T15:41:31;23.70;97.60
39347;DHT22;26262;49.836;6.632;2022-09-03T15:43:59;23.70;97.30
39347;DHT22;26262;49.836;6.632;2022-09-03T15:49:35;23.60;97.90
39347;DHT22;26262;49.836;6.632;2022-09-03T15:52:22;23.50;98.10
39347;DHT22;26262;49.836;6.632;2022-09-03T15:58:01;23.60;96.70
39347;DHT22;26262;49.836;6.632;2022-09-03T16:12:19;23.30;97.10
39347;DHT22;26262;49.836;6.632;2022-09-03T16:14:54;23.30;97.60
39347;DHT22;26262;49.836;6.632;2022-09-03T16:20:21;23.20;98.20
39347;DHT22;26262;49.836;6.632;2022-09-03T16:22:54;23.20;98.30
39347;DHT22;26262;49.836;6.632;2022-09-03T16:25:33;23.10;98.20
39347;DHT22;26262;49.836;6.632;2022-09-03T16:28:23;22.80;98.80
39347;DHT22;26262;49.836;6.632;2022-09-03T16:31:14;23.00;98.70
39347;DHT22;26262;49.836;6.632;2022-09-03T16:48:22;22.70;99.30
39347;DHT22;26262;49.836;6.632;2022-09-03T16:51:13;22.60;99.60
39347;DHT22;26262;49.836;6.632;2022-09-03T16:59:31;22.20;99.90
39347;DHT22;26262;49.836;6.632;2022-09-03T17:02:18;22.00;99.90
39347;DHT22;26262;49.836;6.632;2022-09-03T17:05:10;22.00;99.90
39347;DHT22;26262;49.836;6.632;2022-09-03T17:18:29;21.30;99.90
39347;DHT22;26262;49.836;6.632;2022-09-03T17:21:21;21.40;99.90
39347;DHT22;26262;49.836;6.632;2022-09-03T17:27:03;21.40;99.90
39347;DHT22;26262;49.836;6.632;2022-09-03T17:29:52;21.00;99.90
39347;DHT22;26262;49.836;6.632;2022-09-03T17:35:13;21.10;99.90
39347;DHT22;26262;49.836;6.632;2022-09-03T17:38:22;20.90;99.90
39347;DHT22;26262;49.836;6.632;2022-09-03T17:48:54;20.40;99.90
39347;DHT22;26262;49.836;6.632;2022-09-03T17:51:32;20.40;99.90
39347;DHT22;26262;49.836;6.632;2022-09-03T17:56:41;20.30;99.90
39347;DHT22;26262;49.836;6.632;2022-09-03T17:59:18;20.20;99.90
39347;DHT22;26262;49.836;6.632;2022-09-03T18:01:53;20.20;99.90
39347;DHT22;26262;49.836;6.632;2022-09-03T18:04:40;20.30;99.90
39347;DHT22;26262;49.836;6.632;2022-09-03T18:10:09;20.30;99.90
39347;DHT22;26262;49.836;6.632;2022-09-03T18:15:49;20.30;99.90
39347;DHT22;26262;49.836;6.632;2022-09-03T18:18:27;20.30;99.90
39347;DHT22;26262;49.836;6.632;2022-09-03T18:20:57;20.10;99.90
39347;DHT22;26262;49.836;6.632;2022-09-03T18:26:43;20.10;99.90
39347;DHT22;26262;49.836;6.632;2022-09-03T18:29:42;20.00;99.90
39347;DHT22;26262;49.836;6.632;2022-09-03T18:32:29;20.00;99.90
39347;DHT22;26262;49.836;6.632;2022-09-03T18:35:13;19.90;99.90
39347;DHT22;26262;49.836;6.632;2022-09-03T18:37:58;19.90;99.90
39347;DHT22;26262;49.836;6.632;2022-09-03T18:41:04;19.90;99.90
39347;DHT22;26262;49.836;6.632;2022-09-03T18:49:44;19.60;99.90
39347;DHT22;26262;49.836;6.632;2022-09-03T18:52:41;19.70;99.90
39347;DHT22;26262;49.836;6.632;2022-09-03T18:59:02;19.60;99.90
39347;DHT22;26262;49.836;6.632;2022-09-03T19:01:50;19.50;99.90
39347;DHT22;26262;49.836;6.632;2022-09-03T19:08:05;19.30;99.90
39347;DHT22;26262;49.836;6.632;2022-09-03T19:11:03;19.50;99.90
39347;DHT22;26262;49.836;6.632;2022-09-03T19:13:50;19.60;99.90
39347;DHT22;26262;49.836;6.632;2022-09-03T19:22:34;19.20;99.90
39347;DHT22;26262;49.836;6.632;2022-09-03T19:25:19;19.20;99.90
39347;DHT22;26262;49.836;6.632;2022-09-03T19:28:17;19.10;99.90
39347;DHT22;26262;49.836;6.632;2022-09-03T19:40:35;18.90;99.90
39347;DHT22;26262;49.836;6.632;2022-09-03T19:46:39;18.50;99.90
39347;DHT22;26262;49.836;6.632;2022-09-03T19:50:00;18.50;99.90
39347;DHT22;26262;49.836;6.632;2022-09-03T19:55:33;18.80;99.90
39347;DHT22;26262;49.836;6.632;2022-09-03T19:58:22;18.70;99.90
39347;DHT22;26262;49.836;6.632;2022-09-03T20:01:08;18.60;99.90
39347;DHT22;26262;49.836;6.632;2022-09-03T20:03:55;18.50;99.90
39347;DHT22;26262;49.836;6.632;2022-09-03T20:06:41;18.60;99.90
39347;DHT22;26262;49.836;6.632;2022-09-03T20:09:31;18.70;99.90
39347;DHT22;26262;49.836;6.632;2022-09-03T20:12:18;18.90;99.90
39347;DHT22;26262;49.836;6.632;2022-09-03T20:14:46;18.80;99.90
39347;DHT22;26262;49.836;6.632;2022-09-03T20:22:32;18.70;99.90
39347;DHT22;26262;49.836;6.632;2022-09-03T20:28:09;18.80;99.90
39347;DHT22;26262;49.836;6.632;2022-09-03T20:31:01;19.00;99.90